createdAt,value
2017-03-18T00:00:52.705Z,1001.98
2017-03-18T00:02:03.696Z,1001.89
2017-03-18T00:03:14.693Z,1001.85
2017-03-18T00:04:25.678Z,1001.86
2017-03-18T00:05:36.954Z,1001.77
2017-03-18T00:06:47.937Z,1001.74
2017-03-18T00:07:59.138Z,1001.64
2017-03-18T00:09:10.331Z,1001.66
2017-03-18T00:10:21.326Z,1001.61
2017-03-18T00:11:32.349Z,1001.53
2017-03-18T00:12:43.346Z,1001.51
2017-03-18T00:13:54.340Z,1001.43
2017-03-18T00:15:05.355Z,1001.36
2017-03-18T00:16:16.598Z,1001.4
2017-03-18T00:17:27.580Z,1001.31
2017-03-18T00:18:38.580Z,1001.26
2017-03-18T00:19:49.576Z,1001.26
2017-03-18T00:21:00.570Z,1001.19
2017-03-18T00:22:11.806Z,1001.12
2017-03-18T00:23:23.004Z,1001.07
2017-03-18T00:24:33.998Z,1000.96
2017-03-18T00:25:44.990Z,1000.84
2017-03-18T00:26:55.979Z,1000.86
2017-03-18T00:28:06.969Z,1000.85
2017-03-18T00:29:18.169Z,1000.81
2017-03-18T00:30:29.163Z,1000.79
2017-03-18T00:31:40.152Z,1000.68
2017-03-18T00:32:51.150Z,1000.68
2017-03-18T00:34:02.394Z,1000.62
2017-03-18T00:35:13.397Z,1000.66
2017-03-18T00:36:24.384Z,1000.6
2017-03-18T00:37:35.367Z,1000.62
2017-03-18T00:38:46.566Z,1000.55
2017-03-18T00:39:57.768Z,1000.5
2017-03-18T00:41:08.747Z,1000.41
2017-03-18T00:42:19.735Z,1000.32
2017-03-18T00:43:30.975Z,1000.27
2017-03-18T00:44:41.967Z,1000.23
2017-03-18T00:45:52.955Z,1000.26
2017-03-18T00:47:04.133Z,1000.2
2017-03-18T00:48:15.123Z,1000.18
2017-03-18T00:49:26.114Z,1000.13
2017-03-18T00:50:37.106Z,1000.09
2017-03-18T00:51:48.093Z,1000.09
2017-03-18T00:52:59.075Z,999.95
2017-03-18T00:54:10.117Z,999.85
2017-03-18T00:55:21.568Z,999.82
2017-03-18T00:56:32.954Z,999.78
2017-03-18T00:57:44.345Z,999.63
2017-03-18T00:58:55.752Z,999.63
2017-03-18T01:00:06.753Z,999.69
2017-03-18T01:01:17.771Z,999.57
2017-03-18T01:02:28.755Z,999.61
2017-03-18T01:03:39.744Z,999.6
2017-03-18T01:04:50.781Z,999.63
2017-03-18T01:06:02.011Z,999.51
2017-03-18T01:07:12.998Z,999.6
2017-03-18T01:08:24.184Z,999.45
2017-03-18T01:09:35.376Z,999.46
2017-03-18T01:10:46.414Z,999.43
2017-03-18T01:11:57.400Z,999.34
2017-03-18T01:13:08.385Z,999.36
2017-03-18T01:14:19.580Z,999.32
2017-03-18T01:15:30.791Z,999.26
2017-03-18T01:16:41.977Z,999.18
2017-03-18T01:17:53.167Z,999.18
2017-03-18T01:19:04.159Z,999.19
2017-03-18T01:20:15.355Z,999.12
2017-03-18T01:21:26.344Z,999.13
2017-03-18T01:22:37.397Z,999.1
2017-03-18T01:23:48.407Z,999.05
2017-03-18T01:24:59.400Z,999.01
2017-03-18T01:26:10.382Z,998.91
2017-03-18T01:27:21.366Z,998.9
2017-03-18T01:28:32.358Z,998.8
2017-03-18T01:29:43.363Z,998.84
2017-03-18T01:30:54.345Z,998.83
2017-03-18T01:32:05.382Z,998.82
2017-03-18T01:33:16.771Z,998.76
2017-03-18T01:34:27.762Z,998.74
2017-03-18T01:35:39.168Z,998.68
2017-03-18T01:36:50.360Z,998.7
2017-03-18T01:38:01.334Z,998.72
2017-03-18T01:39:12.312Z,998.63
2017-03-18T01:40:23.304Z,998.51
2017-03-18T01:41:34.288Z,998.59
2017-03-18T01:42:45.526Z,998.61
2017-03-18T01:43:56.508Z,998.66
2017-03-18T01:45:07.504Z,998.51
2017-03-18T01:46:18.484Z,998.51
2017-03-18T01:47:29.472Z,998.55
2017-03-18T01:48:40.466Z,998.47
2017-03-18T01:49:51.465Z,998.49
2017-03-18T01:51:02.454Z,998.44
2017-03-18T01:52:13.441Z,998.41
2017-03-18T01:53:24.885Z,998.49
2017-03-18T01:54:35.898Z,998.51
2017-03-18T01:55:46.884Z,998.49
2017-03-18T01:56:57.873Z,998.45
2017-03-18T01:58:08.855Z,998.42
2017-03-18T01:59:19.896Z,998.38
2017-03-18T02:00:30.885Z,998.35
2017-03-18T02:01:41.866Z,998.32
2017-03-18T02:02:52.861Z,998.31
2017-03-18T02:04:03.849Z,998.21
2017-03-18T02:05:14.917Z,998.25
2017-03-18T02:06:26.106Z,998.25
2017-03-18T02:07:37.100Z,998.18
2017-03-18T02:08:48.094Z,998.01
2017-03-18T02:09:59.081Z,997.98
2017-03-18T02:11:10.075Z,997.94
2017-03-18T02:12:21.067Z,997.87
2017-03-18T02:13:32.055Z,997.88
2017-03-18T02:14:43.052Z,997.78
2017-03-18T02:15:54.250Z,997.86
2017-03-18T02:17:05.286Z,997.67
2017-03-18T02:18:16.273Z,997.84
2017-03-18T02:19:27.265Z,997.7
2017-03-18T02:20:38.451Z,997.67
2017-03-18T02:21:49.634Z,997.6
2017-03-18T02:23:00.622Z,997.62
2017-03-18T02:24:11.613Z,997.62
2017-03-18T02:25:22.606Z,997.75
2017-03-18T02:26:33.641Z,997.63
2017-03-18T02:27:44.625Z,997.71
2017-03-18T02:28:55.628Z,997.67
2017-03-18T02:30:06.630Z,997.6
2017-03-18T02:31:17.617Z,997.62
2017-03-18T02:32:28.606Z,997.52
2017-03-18T02:33:39.603Z,997.43
2017-03-18T02:34:50.588Z,997.48
2017-03-18T02:36:01.568Z,997.48
2017-03-18T02:37:12.611Z,997.44
2017-03-18T02:38:23.800Z,997.38
2017-03-18T02:39:34.993Z,997.43
2017-03-18T02:40:45.985Z,997.37
2017-03-18T02:41:56.976Z,997.21
2017-03-18T02:43:08.000Z,997.23
2017-03-18T02:44:19.043Z,997.15
2017-03-18T02:45:30.251Z,997.14
2017-03-18T02:46:41.440Z,997.17
2017-03-18T02:47:52.478Z,997.19
2017-03-18T02:49:03.479Z,997.08
2017-03-18T02:50:14.466Z,997.08
2017-03-18T02:51:25.452Z,997.03
2017-03-18T02:52:36.434Z,997.04
2017-03-18T02:53:47.425Z,997.04
2017-03-18T02:54:58.429Z,997.03
2017-03-18T02:56:09.414Z,997.05
2017-03-18T02:57:20.403Z,997.05
2017-03-18T02:58:31.390Z,997.05
2017-03-18T02:59:42.383Z,996.96
2017-03-18T03:00:53.375Z,996.94
2017-03-18T03:02:04.367Z,996.9
2017-03-18T03:03:15.360Z,996.96
2017-03-18T03:04:26.359Z,996.98
2017-03-18T03:05:37.606Z,996.82
2017-03-18T03:06:48.604Z,996.9
2017-03-18T03:07:59.597Z,996.75
2017-03-18T03:09:10.582Z,996.77
2017-03-18T03:10:21.573Z,996.78
2017-03-18T03:11:32.560Z,996.66
2017-03-18T03:12:43.550Z,996.6
2017-03-18T03:13:54.553Z,996.7
2017-03-18T03:15:05.548Z,996.61
2017-03-18T03:16:16.771Z,996.64
2017-03-18T03:17:27.961Z,996.59
2017-03-18T03:18:39.356Z,996.57
2017-03-18T03:19:50.585Z,996.56
2017-03-18T03:21:01.612Z,996.68
2017-03-18T03:22:12.603Z,996.6
2017-03-18T03:23:23.597Z,996.67
2017-03-18T03:24:34.796Z,996.63
2017-03-18T03:25:45.831Z,996.71
2017-03-18T03:26:56.817Z,996.62
2017-03-18T03:28:07.809Z,996.6
2017-03-18T03:29:19.006Z,996.6
2017-03-18T03:30:30.197Z,996.65
2017-03-18T03:31:41.381Z,996.67
2017-03-18T03:32:52.373Z,996.64
2017-03-18T03:34:03.565Z,996.6
2017-03-18T03:35:14.551Z,996.59
2017-03-18T03:36:25.622Z,996.48
2017-03-18T03:37:36.620Z,996.39
2017-03-18T03:38:47.626Z,996.42
2017-03-18T03:39:58.631Z,996.48
2017-03-18T03:41:09.829Z,996.53
2017-03-18T03:42:20.817Z,996.38
2017-03-18T03:43:32.003Z,996.4
2017-03-18T03:44:43.003Z,996.41
2017-03-18T03:45:53.992Z,996.39
2017-03-18T03:47:05.214Z,996.28
2017-03-18T03:48:16.200Z,996.39
2017-03-18T03:49:27.187Z,996.43
2017-03-18T03:50:38.185Z,996.32
2017-03-18T03:51:49.165Z,996.37
2017-03-18T03:53:00.154Z,996.39
2017-03-18T03:54:11.189Z,996.29
2017-03-18T03:55:22.187Z,996.27
2017-03-18T03:56:33.378Z,996.28
2017-03-18T03:57:44.369Z,996.31
2017-03-18T03:58:55.369Z,996.25
2017-03-18T04:00:06.365Z,996.13
2017-03-18T04:01:17.352Z,996.22
2017-03-18T04:02:28.338Z,996.25
2017-03-18T04:03:39.589Z,996.3
2017-03-18T04:04:50.587Z,996.2
2017-03-18T04:06:01.583Z,996.26
2017-03-18T04:07:12.573Z,996.17
2017-03-18T04:08:23.560Z,996.18
2017-03-18T04:09:34.556Z,996.2
2017-03-18T04:10:45.738Z,996.26
2017-03-18T04:11:56.723Z,996.22
2017-03-18T04:13:07.720Z,996.21
2017-03-18T04:14:18.765Z,996.28
2017-03-18T04:15:29.755Z,996.19
2017-03-18T04:16:40.943Z,996.23
2017-03-18T04:17:51.937Z,996.34
2017-03-18T04:19:03.130Z,996.21
2017-03-18T04:20:14.134Z,996.17
2017-03-18T04:21:25.116Z,996.2
2017-03-18T04:22:36.117Z,996.13
2017-03-18T04:23:47.118Z,996.17
2017-03-18T04:24:58.169Z,996.13
2017-03-18T04:26:09.180Z,996.2
2017-03-18T04:27:20.179Z,996.15
2017-03-18T04:28:31.171Z,996.12
2017-03-18T04:29:42.382Z,996.2
2017-03-18T04:30:53.583Z,996.16
2017-03-18T04:32:04.781Z,996.21
2017-03-18T04:33:15.776Z,996.17
2017-03-18T04:34:26.773Z,996.11
2017-03-18T04:35:37.758Z,996.19
2017-03-18T04:36:48.951Z,996.2
2017-03-18T04:38:00.151Z,996.19
2017-03-18T04:39:11.145Z,996.05
2017-03-18T04:40:22.147Z,996.12
2017-03-18T04:41:33.196Z,996.13
2017-03-18T04:42:44.187Z,996.1
2017-03-18T04:43:55.178Z,996.14
2017-03-18T04:45:06.170Z,996.16
2017-03-18T04:46:17.164Z,996.18
2017-03-18T04:47:28.149Z,996.05
2017-03-18T04:48:39.148Z,996.12
2017-03-18T04:49:50.144Z,996.03
2017-03-18T04:51:01.192Z,996.1
2017-03-18T04:52:12.177Z,996.08
2017-03-18T04:53:23.170Z,996.05
2017-03-18T04:54:34.166Z,996.09
2017-03-18T04:55:45.160Z,996.12
2017-03-18T04:56:56.142Z,996.12
2017-03-18T04:58:07.126Z,996.16
2017-03-18T04:59:18.114Z,996.13
2017-03-18T05:00:29.127Z,996.09
2017-03-18T05:01:40.374Z,996.01
2017-03-18T05:02:51.567Z,996.06
2017-03-18T05:04:02.569Z,996.07
2017-03-18T05:05:13.565Z,996.07
2017-03-18T05:06:24.545Z,996.04
2017-03-18T05:07:35.741Z,996.16
2017-03-18T05:08:46.735Z,996.04
2017-03-18T05:09:57.731Z,996.03
2017-03-18T05:11:08.726Z,995.98
2017-03-18T05:12:19.967Z,996.1
2017-03-18T05:13:31.363Z,996.14
2017-03-18T05:14:42.351Z,996.14
2017-03-18T05:15:53.560Z,996.21
2017-03-18T05:17:04.557Z,996.24
2017-03-18T05:18:15.616Z,996.17
2017-03-18T05:19:26.616Z,996.26
2017-03-18T05:20:37.607Z,996.26
2017-03-18T05:21:48.635Z,996.25
2017-03-18T05:22:59.829Z,996.31
2017-03-18T05:24:10.827Z,996.25
2017-03-18T05:25:22.018Z,996.42
2017-03-18T05:26:33.004Z,996.35
2017-03-18T05:27:43.997Z,996.52
2017-03-18T05:28:54.985Z,996.52
2017-03-18T05:30:06.233Z,996.49
2017-03-18T05:31:17.428Z,996.59
2017-03-18T05:32:28.419Z,996.62
2017-03-18T05:33:39.416Z,996.61
2017-03-18T05:34:50.413Z,996.62
2017-03-18T05:36:01.404Z,996.62
2017-03-18T05:37:12.584Z,996.6
2017-03-18T05:38:23.777Z,996.58
2017-03-18T05:39:34.834Z,996.6
2017-03-18T05:40:45.820Z,996.58
2017-03-18T05:41:57.009Z,996.65
2017-03-18T05:43:08.200Z,996.66
2017-03-18T05:44:19.198Z,996.54
2017-03-18T05:45:30.200Z,996.64
2017-03-18T05:46:41.192Z,996.58
2017-03-18T05:47:52.179Z,996.64
2017-03-18T05:49:03.176Z,996.57
2017-03-18T05:50:14.217Z,996.6
2017-03-18T05:51:25.213Z,996.62
2017-03-18T05:52:36.405Z,996.7
2017-03-18T05:53:47.405Z,996.75
2017-03-18T05:54:58.601Z,996.66
2017-03-18T05:56:09.590Z,996.54
2017-03-18T05:57:20.577Z,996.51
2017-03-18T05:58:31.568Z,996.47
2017-03-18T05:59:42.569Z,996.45
2017-03-18T06:00:53.818Z,996.46
2017-03-18T06:02:04.810Z,996.53
2017-03-18T06:03:15.808Z,996.58
2017-03-18T06:04:26.811Z,996.63
2017-03-18T06:05:37.999Z,996.63
2017-03-18T06:06:49.241Z,996.63
2017-03-18T06:08:00.229Z,996.57
2017-03-18T06:09:11.218Z,996.55
2017-03-18T06:10:22.215Z,996.59
2017-03-18T06:11:33.212Z,996.62
2017-03-18T06:12:44.205Z,996.66
2017-03-18T06:13:55.210Z,996.77
2017-03-18T06:15:06.401Z,996.77
2017-03-18T06:16:17.386Z,996.72
2017-03-18T06:17:28.380Z,996.73
2017-03-18T06:18:39.620Z,996.67
2017-03-18T06:19:50.614Z,996.77
2017-03-18T06:21:01.611Z,996.77
2017-03-18T06:22:12.631Z,996.79
2017-03-18T06:23:23.850Z,996.81
2017-03-18T06:24:34.851Z,996.83
2017-03-18T06:25:45.853Z,996.82
2017-03-18T06:26:56.846Z,996.8
2017-03-18T06:28:07.891Z,996.79
2017-03-18T06:29:19.098Z,996.83
2017-03-18T06:30:30.093Z,996.76
2017-03-18T06:31:41.080Z,996.68
2017-03-18T06:32:52.063Z,996.7
2017-03-18T06:34:03.067Z,996.74
2017-03-18T06:35:14.071Z,996.69
2017-03-18T06:36:25.266Z,996.61
2017-03-18T06:37:36.254Z,996.67
2017-03-18T06:38:47.502Z,996.76
2017-03-18T06:39:58.504Z,996.68
2017-03-18T06:41:09.498Z,996.7
2017-03-18T06:42:20.484Z,996.73
2017-03-18T06:43:31.475Z,996.74
2017-03-18T06:44:42.514Z,996.76
2017-03-18T06:45:53.714Z,996.68
2017-03-18T06:47:04.694Z,996.72
2017-03-18T06:48:15.682Z,996.76
2017-03-18T06:49:26.918Z,996.77
2017-03-18T06:50:38.314Z,996.83
2017-03-18T06:51:49.299Z,996.75
2017-03-18T06:53:00.290Z,996.82
2017-03-18T06:54:11.284Z,996.94
2017-03-18T06:55:22.326Z,996.97
2017-03-18T06:56:33.325Z,996.97
2017-03-18T06:57:44.310Z,996.92
2017-03-18T06:58:55.342Z,996.97
2017-03-18T07:00:06.525Z,996.97
2017-03-18T07:01:17.513Z,997.07
2017-03-18T07:02:28.503Z,997
2017-03-18T07:03:39.694Z,997.06
2017-03-18T07:04:50.686Z,997.11
2017-03-18T07:06:01.665Z,997.15
2017-03-18T07:07:12.648Z,997.2
2017-03-18T07:08:23.641Z,997.16
2017-03-18T07:09:34.632Z,997.19
2017-03-18T07:10:45.819Z,997.2
2017-03-18T07:11:56.807Z,997.24
2017-03-18T07:13:07.883Z,997.22
2017-03-18T07:14:18.890Z,997.27
2017-03-18T07:15:29.918Z,997.29
2017-03-18T07:16:40.907Z,997.28
2017-03-18T07:17:51.901Z,997.25
2017-03-18T07:19:03.302Z,997.39
2017-03-18T07:20:14.893Z,997.41
2017-03-18T07:21:25.891Z,997.37
2017-03-18T07:22:36.939Z,997.39
2017-03-18T07:23:47.934Z,997.42
2017-03-18T07:24:59.139Z,997.43
2017-03-18T07:26:10.130Z,997.43
2017-03-18T07:27:21.110Z,997.44
2017-03-18T07:28:32.296Z,997.53
2017-03-18T07:29:43.492Z,997.52
2017-03-18T07:30:54.485Z,997.5
2017-03-18T07:32:05.511Z,997.54
2017-03-18T07:33:16.810Z,997.49
2017-03-18T07:34:27.816Z,997.54
2017-03-18T07:35:38.809Z,997.56
2017-03-18T07:36:49.799Z,997.61
2017-03-18T07:38:00.991Z,997.66
2017-03-18T07:39:11.993Z,997.6
2017-03-18T07:40:23.198Z,997.67
2017-03-18T07:41:34.214Z,997.67
2017-03-18T07:42:45.196Z,997.65
2017-03-18T07:43:56.248Z,997.74
2017-03-18T07:45:07.243Z,997.65
2017-03-18T07:46:18.229Z,997.75
2017-03-18T07:47:29.427Z,997.67
2017-03-18T07:48:40.423Z,997.77
2017-03-18T07:49:51.425Z,997.73
2017-03-18T07:51:02.416Z,997.77
2017-03-18T07:52:13.610Z,997.74
2017-03-18T07:53:24.610Z,997.83
2017-03-18T07:54:36.015Z,997.77
2017-03-18T07:55:47.093Z,997.75
2017-03-18T07:56:58.097Z,997.79
2017-03-18T07:58:09.088Z,997.82
2017-03-18T07:59:20.102Z,997.74
2017-03-18T08:00:31.095Z,997.82
2017-03-18T08:01:42.289Z,997.83
2017-03-18T08:02:53.284Z,997.79
2017-03-18T08:04:04.476Z,997.83
2017-03-18T08:05:15.524Z,997.84
2017-03-18T08:06:26.516Z,997.92
2017-03-18T08:07:37.707Z,997.95
2017-03-18T08:08:48.709Z,997.96
2017-03-18T08:09:59.714Z,997.96
2017-03-18T08:11:10.912Z,997.85
2017-03-18T08:12:22.106Z,997.78
2017-03-18T08:13:33.095Z,997.88
2017-03-18T08:14:44.101Z,997.85
2017-03-18T08:15:55.394Z,997.89
2017-03-18T08:17:06.386Z,997.91
2017-03-18T08:18:17.373Z,997.86
2017-03-18T08:19:28.370Z,997.89
2017-03-18T08:20:39.575Z,997.87
2017-03-18T08:21:50.566Z,997.96
2017-03-18T08:23:01.572Z,997.94
2017-03-18T08:24:12.580Z,997.96
2017-03-18T08:25:23.576Z,997.99
2017-03-18T08:26:34.568Z,997.96
2017-03-18T08:27:45.761Z,997.98
2017-03-18T08:28:56.963Z,998.01
2017-03-18T08:30:07.952Z,998.07
2017-03-18T08:31:18.986Z,998.05
2017-03-18T08:32:29.975Z,998.07
2017-03-18T08:33:40.980Z,998.1
2017-03-18T08:34:51.979Z,998.18
2017-03-18T08:36:03.174Z,998.2
2017-03-18T08:37:14.373Z,998.31
2017-03-18T08:38:25.373Z,998.28
2017-03-18T08:39:36.577Z,998.22
2017-03-18T08:40:47.564Z,998.23
2017-03-18T08:41:58.552Z,998.19
2017-03-18T08:43:09.737Z,998.33
2017-03-18T08:44:20.732Z,998.35
2017-03-18T08:45:31.733Z,998.31
2017-03-18T08:46:42.737Z,998.31
2017-03-18T08:47:53.735Z,998.34
2017-03-18T08:49:04.734Z,998.41
2017-03-18T08:50:15.727Z,998.34
2017-03-18T08:51:26.748Z,998.45
2017-03-18T08:52:37.791Z,998.41
2017-03-18T08:53:48.797Z,998.44
2017-03-18T08:54:59.995Z,998.43
2017-03-18T08:56:10.996Z,998.39
2017-03-18T08:57:21.987Z,998.46
2017-03-18T08:58:33.180Z,998.46
2017-03-18T08:59:44.169Z,998.43
2017-03-18T09:00:55.168Z,998.54
2017-03-18T09:02:06.353Z,998.51
2017-03-18T09:03:17.803Z,998.61
2017-03-18T09:04:28.801Z,998.58
2017-03-18T09:05:39.795Z,998.57
2017-03-18T09:06:51.386Z,998.62
2017-03-18T09:08:02.392Z,998.65
2017-03-18T09:09:13.388Z,998.59
2017-03-18T09:10:24.391Z,998.67
2017-03-18T09:11:35.385Z,998.63
2017-03-18T09:12:46.377Z,998.68
2017-03-18T09:13:57.628Z,998.77
2017-03-18T09:15:08.623Z,998.71
2017-03-18T09:16:19.622Z,998.73
2017-03-18T09:17:30.621Z,998.74
2017-03-18T09:18:41.632Z,998.69
2017-03-18T09:19:52.622Z,998.66
2017-03-18T09:21:03.814Z,998.74
2017-03-18T09:22:15.005Z,998.69
2017-03-18T09:23:25.999Z,998.67
2017-03-18T09:24:37.005Z,998.65
2017-03-18T09:25:48.002Z,998.73
2017-03-18T09:26:58.993Z,998.72
2017-03-18T09:28:09.986Z,998.77
2017-03-18T09:29:21.005Z,998.74
2017-03-18T09:30:32.002Z,998.75
2017-03-18T09:31:42.987Z,998.72
2017-03-18T09:32:53.980Z,998.83
2017-03-18T09:34:04.973Z,998.78
2017-03-18T09:35:16.399Z,998.85
2017-03-18T09:36:27.407Z,998.78
2017-03-18T09:37:38.608Z,998.85
2017-03-18T09:38:49.624Z,998.92
2017-03-18T09:40:00.629Z,999.03
2017-03-18T09:41:11.887Z,998.91
2017-03-18T09:42:23.082Z,998.98
2017-03-18T09:43:34.473Z,999.08
2017-03-18T09:44:45.477Z,999.06
2017-03-18T09:45:56.485Z,999.08
2017-03-18T09:47:07.474Z,999.16
2017-03-18T09:48:18.671Z,999.15
2017-03-18T09:49:30.077Z,999.2
2017-03-18T09:50:41.330Z,999.28
2017-03-18T09:51:52.326Z,999.28
2017-03-18T09:53:03.514Z,999.29
2017-03-18T09:54:14.525Z,999.33
2017-03-18T09:55:25.534Z,999.31
2017-03-18T09:56:36.537Z,999.4
2017-03-18T09:57:47.541Z,999.41
2017-03-18T09:58:58.531Z,999.47
2017-03-18T10:00:09.530Z,999.44
2017-03-18T10:01:20.563Z,999.36
2017-03-18T10:02:31.564Z,999.46
2017-03-18T10:03:42.768Z,999.44
2017-03-18T10:04:53.770Z,999.48
2017-03-18T10:06:04.771Z,999.48
2017-03-18T10:07:15.757Z,999.48
2017-03-18T10:08:26.746Z,999.54
2017-03-18T10:09:37.754Z,999.49
2017-03-18T10:10:48.748Z,999.52
2017-03-18T10:11:59.786Z,999.49
2017-03-18T10:13:10.780Z,999.56
2017-03-18T10:14:21.790Z,999.58
2017-03-18T10:15:32.788Z,999.62
2017-03-18T10:16:43.992Z,999.63
2017-03-18T10:17:54.979Z,999.62
2017-03-18T10:19:05.972Z,999.69
2017-03-18T10:20:16.974Z,999.55
2017-03-18T10:21:27.971Z,999.55
2017-03-18T10:22:38.967Z,999.53
2017-03-18T10:23:50.014Z,999.53
2017-03-18T10:25:01.051Z,999.59
2017-03-18T10:26:12.043Z,999.65
2017-03-18T10:27:23.445Z,999.57
2017-03-18T10:28:34.640Z,999.58
2017-03-18T10:29:45.642Z,999.7
2017-03-18T10:30:56.647Z,999.59
2017-03-18T10:32:07.638Z,999.75
2017-03-18T10:33:18.687Z,999.72
2017-03-18T10:34:29.697Z,999.86
2017-03-18T10:35:40.691Z,999.82
2017-03-18T10:36:51.681Z,999.84
2017-03-18T10:38:02.685Z,999.83
2017-03-18T10:39:13.694Z,999.92
2017-03-18T10:40:24.712Z,999.88
2017-03-18T10:41:35.707Z,1000
2017-03-18T10:42:46.707Z,999.86
2017-03-18T10:43:57.754Z,999.98
2017-03-18T10:45:08.754Z,999.9
2017-03-18T10:46:20.357Z,999.96
2017-03-18T10:47:31.546Z,999.89
2017-03-18T10:48:42.543Z,999.89
2017-03-18T10:49:53.552Z,999.84
2017-03-18T10:51:04.590Z,999.83
2017-03-18T10:52:15.620Z,999.82
2017-03-18T10:53:26.617Z,999.82
2017-03-18T10:54:37.684Z,999.8
2017-03-18T10:55:48.687Z,999.85
2017-03-18T10:56:59.880Z,999.94
2017-03-18T10:58:10.871Z,999.91
2017-03-18T10:59:21.873Z,999.87
2017-03-18T11:00:32.870Z,999.86
2017-03-18T11:01:44.270Z,999.88
2017-03-18T11:02:55.681Z,999.98
2017-03-18T11:04:06.891Z,1000.02
2017-03-18T11:05:17.890Z,999.96
2017-03-18T11:06:28.891Z,999.97
2017-03-18T11:07:39.893Z,999.94
2017-03-18T11:08:50.904Z,999.98
2017-03-18T11:10:01.899Z,999.96
2017-03-18T11:11:12.898Z,1000.06
2017-03-18T11:12:23.897Z,1000.04
2017-03-18T11:13:34.893Z,1000.05
2017-03-18T11:14:45.899Z,1000.12
2017-03-18T11:15:57.315Z,1000.14
2017-03-18T11:17:08.351Z,1000.25
2017-03-18T11:18:19.352Z,1000.35
2017-03-18T11:19:30.347Z,1000.24
2017-03-18T11:20:41.346Z,1000.24
2017-03-18T11:21:52.340Z,1000.26
2017-03-18T11:23:03.335Z,1000.3
2017-03-18T11:24:14.343Z,1000.23
2017-03-18T11:25:25.362Z,1000.17
2017-03-18T11:26:36.609Z,1000.18
2017-03-18T11:27:47.617Z,1000.15
2017-03-18T11:28:58.613Z,1000.18
2017-03-18T11:30:09.631Z,1000.2
2017-03-18T11:31:20.837Z,1000.22
2017-03-18T11:32:31.832Z,1000.28
2017-03-18T11:33:42.835Z,1000.27
2017-03-18T11:34:53.837Z,1000.34
2017-03-18T11:36:04.840Z,1000.36
2017-03-18T11:37:16.092Z,1000.36
2017-03-18T11:38:27.096Z,1000.37
2017-03-18T11:39:38.095Z,1000.45
2017-03-18T11:40:49.299Z,1000.44
2017-03-18T11:42:00.305Z,1000.45
2017-03-18T11:43:11.313Z,1000.51
2017-03-18T11:44:22.516Z,1000.48
2017-03-18T11:45:33.711Z,1000.42
2017-03-18T11:46:44.720Z,1000.43
2017-03-18T11:47:55.971Z,1000.52
2017-03-18T11:49:06.970Z,1000.43
2017-03-18T11:50:17.972Z,1000.39
2017-03-18T11:51:28.965Z,1000.38
2017-03-18T11:52:39.964Z,1000.46
2017-03-18T11:53:50.998Z,1000.51
2017-03-18T11:55:02.208Z,1000.45
2017-03-18T11:56:13.203Z,1000.46
2017-03-18T11:57:24.211Z,1000.54
2017-03-18T11:58:35.212Z,1000.55
2017-03-18T11:59:46.496Z,1000.61
2017-03-18T12:00:57.503Z,1000.59
2017-03-18T12:02:08.495Z,1000.66
2017-03-18T12:03:19.523Z,1000.62
2017-03-18T12:04:30.525Z,1000.69
2017-03-18T12:05:41.516Z,1000.64
2017-03-18T12:06:52.514Z,1000.59
2017-03-18T12:08:03.510Z,1000.6
2017-03-18T12:09:14.561Z,1000.6
2017-03-18T12:10:25.578Z,1000.6
2017-03-18T12:11:36.595Z,1000.62
2017-03-18T12:12:47.642Z,1000.6
2017-03-18T12:13:58.656Z,1000.59
2017-03-18T12:15:09.671Z,1000.6
2017-03-18T12:16:20.675Z,1000.58
2017-03-18T12:17:31.673Z,1000.58
2017-03-18T12:18:42.676Z,1000.52
2017-03-18T12:19:53.950Z,1000.74
2017-03-18T12:21:04.943Z,1000.63
2017-03-18T12:22:15.947Z,1000.59
2017-03-18T12:23:26.951Z,1000.6
2017-03-18T12:24:37.954Z,1000.66
2017-03-18T12:25:48.947Z,1000.75
2017-03-18T12:26:59.950Z,1000.76
2017-03-18T12:28:11.177Z,1000.75
2017-03-18T12:29:22.186Z,1000.74
2017-03-18T12:30:33.186Z,1000.68
2017-03-18T12:31:44.186Z,1000.68
2017-03-18T12:32:55.186Z,1000.71
2017-03-18T12:34:06.189Z,1000.63
2017-03-18T12:35:17.454Z,1000.64
2017-03-18T12:36:28.451Z,1000.66
2017-03-18T12:37:39.650Z,1000.65
2017-03-18T12:38:50.663Z,1000.62
2017-03-18T12:40:01.902Z,1000.58
2017-03-18T12:41:13.110Z,1000.57
2017-03-18T12:42:24.125Z,1000.66
2017-03-18T12:43:35.130Z,1000.6
2017-03-18T12:44:46.132Z,1000.54
2017-03-18T12:45:57.378Z,1000.52
2017-03-18T12:47:08.637Z,1000.58
2017-03-18T12:48:19.631Z,1000.63
2017-03-18T12:49:30.844Z,1000.7
2017-03-18T12:50:41.846Z,1000.65
2017-03-18T12:51:52.890Z,1000.64
2017-03-18T12:53:03.885Z,1000.66
2017-03-18T12:54:14.883Z,1000.71
2017-03-18T12:55:25.881Z,1000.73
2017-03-18T12:56:36.934Z,1000.75
2017-03-18T12:57:48.139Z,1000.83
2017-03-18T12:58:59.144Z,1000.84
2017-03-18T13:00:10.148Z,1000.9
2017-03-18T13:01:21.137Z,1000.89
2017-03-18T13:02:32.541Z,1000.89
2017-03-18T13:03:43.546Z,1000.89
2017-03-18T13:04:54.553Z,1000.89
2017-03-18T13:06:05.554Z,1000.89
2017-03-18T13:07:16.598Z,1000.95
2017-03-18T13:08:27.998Z,1001
2017-03-18T13:09:39.007Z,1001.03
2017-03-18T13:10:50.199Z,1001.07
2017-03-18T13:12:01.226Z,1001.13
2017-03-18T13:13:12.230Z,1001.15
2017-03-18T13:14:23.231Z,1001.09
2017-03-18T13:15:34.238Z,1001.04
2017-03-18T13:16:45.228Z,1001
2017-03-18T13:17:56.280Z,1000.98
2017-03-18T13:19:07.309Z,1001
2017-03-18T13:20:18.321Z,1000.96
2017-03-18T13:21:29.527Z,1000.98
2017-03-18T13:22:40.521Z,1000.96
2017-03-18T13:23:51.526Z,1001.02
2017-03-18T13:25:02.733Z,1001.07
2017-03-18T13:26:13.746Z,1001.07
2017-03-18T13:27:24.747Z,1001.1
2017-03-18T13:28:35.748Z,1001.09
2017-03-18T13:29:46.737Z,1001.13
2017-03-18T13:30:57.733Z,1001.1
2017-03-18T13:32:08.725Z,1001.13
2017-03-18T13:33:19.722Z,1001.14
2017-03-18T13:34:30.723Z,1001.11
2017-03-18T13:35:41.775Z,1001.21
2017-03-18T13:36:52.778Z,1001.18
2017-03-18T13:38:03.777Z,1001.1
2017-03-18T13:39:14.977Z,1001.24
2017-03-18T13:40:25.981Z,1001.26
2017-03-18T13:41:36.991Z,1001.27
2017-03-18T13:42:47.993Z,1001.24
2017-03-18T13:43:59.199Z,1001.28
2017-03-18T13:45:10.197Z,1001.24
2017-03-18T13:46:21.199Z,1001.32
2017-03-18T13:47:32.194Z,1001.24
2017-03-18T13:48:43.196Z,1001.28
2017-03-18T13:49:54.207Z,1001.27
2017-03-18T13:51:05.516Z,1001.25
2017-03-18T13:52:16.515Z,1001.23
2017-03-18T13:53:27.509Z,1001.27
2017-03-18T13:54:38.508Z,1001.33
2017-03-18T13:55:49.763Z,1001.32
2017-03-18T13:57:01.185Z,1001.34
2017-03-18T13:58:12.181Z,1001.43
2017-03-18T13:59:23.183Z,1001.44
2017-03-18T14:00:34.480Z,1001.52
2017-03-18T14:01:45.475Z,1001.53
2017-03-18T14:02:56.473Z,1001.53
2017-03-18T14:04:07.504Z,1001.61
2017-03-18T14:05:18.513Z,1001.67
2017-03-18T14:06:29.508Z,1001.61
2017-03-18T14:07:40.502Z,1001.66
2017-03-18T14:08:51.504Z,1001.73
2017-03-18T14:10:02.508Z,1001.77
2017-03-18T14:11:13.748Z,1001.85
2017-03-18T14:12:24.746Z,1001.92
2017-03-18T14:13:35.747Z,1001.88
2017-03-18T14:14:46.748Z,1001.94
2017-03-18T14:15:57.745Z,1001.83
2017-03-18T14:17:08.739Z,1001.87
2017-03-18T14:18:19.935Z,1001.89
2017-03-18T14:19:31.159Z,1001.9
2017-03-18T14:20:42.189Z,1001.92
2017-03-18T14:21:53.188Z,1001.96
2017-03-18T14:23:04.434Z,1001.94
2017-03-18T14:24:15.434Z,1002.01
2017-03-18T14:25:26.440Z,1002.04
2017-03-18T14:26:37.447Z,1002
2017-03-18T14:27:48.478Z,1001.98
2017-03-18T14:28:59.686Z,1001.97
2017-03-18T14:30:10.681Z,1001.96
2017-03-18T14:31:21.675Z,1001.99
2017-03-18T14:32:32.918Z,1002.11
2017-03-18T14:33:44.129Z,1002.06
2017-03-18T14:34:55.137Z,1002.07
2017-03-18T14:36:06.133Z,1002.09
2017-03-18T14:37:17.140Z,1002.1
2017-03-18T14:38:28.142Z,1002.13
2017-03-18T14:39:39.139Z,1002.25
2017-03-18T14:40:50.345Z,1002.27
2017-03-18T14:42:01.565Z,1002.29